createdAt,value
2019-05-02T00:01:07.219Z,12.49
2019-05-02T00:03:41.093Z,12.48
2019-05-02T00:06:09.248Z,12.47
2019-05-02T00:08:38.315Z,12.42
2019-05-02T00:11:08.851Z,12.47
2019-05-02T00:13:37.561Z,12.39
2019-05-02T00:16:09.082Z,12.34
2019-05-02T00:18:39.017Z,12.29
2019-05-02T00:21:09.357Z,12.33
2019-05-02T00:23:37.978Z,12.33
2019-05-02T00:26:06.880Z,12.34
2019-05-02T00:28:38.099Z,12.36
2019-05-02T00:31:11.466Z,12.31
2019-05-02T00:33:38.371Z,12.39
2019-05-02T00:36:07.411Z,12.39
2019-05-02T00:38:38.570Z,12.43
2019-05-02T00:41:08.883Z,12.49
2019-05-02T00:43:37.824Z,12.50
2019-05-02T00:46:07.613Z,12.54
2019-05-02T00:48:44.815Z,12.48
2019-05-02T00:51:13.764Z,12.57
2019-05-02T00:53:44.412Z,12.50
2019-05-02T00:56:13.303Z,12.59
2019-05-02T00:58:42.143Z,12.56
2019-05-02T01:01:12.588Z,12.61
2019-05-02T01:03:47.140Z,12.54
2019-05-02T01:06:14.473Z,12.60
2019-05-02T01:08:43.521Z,12.55
2019-05-02T01:11:12.699Z,12.48
2019-05-02T01:13:41.712Z,12.45
2019-05-02T01:16:15.256Z,12.50
2019-05-02T01:18:42.578Z,12.43
2019-05-02T01:21:11.712Z,12.44
2019-05-02T01:23:41.303Z,12.38
2019-05-02T01:26:11.106Z,12.41
2019-05-02T01:28:49.295Z,12.40
2019-05-02T01:31:32.524Z,12.35
2019-05-02T01:34:18.084Z,12.35
2019-05-02T01:36:47.252Z,12.29
2019-05-02T01:39:15.956Z,12.29
2019-05-02T01:41:45.418Z,12.32
2019-05-02T01:44:14.057Z,12.35
2019-05-02T01:46:43.370Z,12.26
2019-05-02T01:49:12.284Z,12.32
2019-05-02T01:51:41.850Z,12.27
2019-05-02T01:54:11.740Z,12.26
2019-05-02T01:56:40.382Z,12.28
2019-05-02T01:59:10.065Z,12.26
2019-05-02T02:01:38.739Z,12.29
2019-05-02T02:04:07.662Z,12.24
2019-05-02T02:06:38.895Z,12.13
2019-05-02T02:09:09.706Z,12.15
2019-05-02T02:11:40.233Z,12.20
2019-05-02T02:14:12.843Z,12.17
2019-05-02T02:16:42.002Z,12.18
2019-05-02T02:19:15.240Z,12.22
2019-05-02T02:21:48.941Z,12.28
2019-05-02T02:24:25.100Z,12.29
2019-05-02T02:26:53.183Z,12.33
2019-05-02T02:29:22.147Z,12.28
2019-05-02T02:31:51.062Z,12.29
2019-05-02T02:34:28.689Z,12.32
2019-05-02T02:36:51.663Z,12.40
2019-05-02T02:39:21.737Z,12.35
2019-05-02T02:41:54.195Z,12.30
2019-05-02T02:44:33.776Z,12.40
2019-05-02T02:47:03.945Z,12.34
2019-05-02T02:49:33.255Z,12.28
2019-05-02T02:52:04.707Z,12.29
2019-05-02T02:54:36.514Z,12.32
2019-05-02T02:57:05.131Z,12.34
2019-05-02T02:59:34.113Z,12.28
2019-05-02T03:02:09.740Z,12.30
2019-05-02T03:04:34.404Z,12.35
2019-05-02T03:07:03.400Z,12.30
2019-05-02T03:09:33.684Z,12.24
2019-05-02T03:12:22.838Z,12.23
2019-05-02T03:14:56.465Z,12.18
2019-05-02T03:17:28.842Z,12.09
2019-05-02T03:20:00.958Z,11.94
2019-05-02T03:22:28.555Z,11.92
2019-05-02T03:24:59.263Z,11.88
2019-05-02T03:27:29.981Z,11.83
2019-05-02T03:29:59.418Z,11.84
2019-05-02T03:32:34.254Z,11.91
2019-05-02T03:34:59.815Z,11.98
2019-05-02T03:37:28.806Z,11.99
2019-05-02T03:40:00.362Z,12.01
2019-05-02T03:42:27.982Z,12.07
2019-05-02T03:45:04.084Z,12.04
2019-05-02T03:47:27.918Z,12.15
2019-05-02T03:49:57.163Z,12.18
2019-05-02T03:52:25.790Z,12.22
2019-05-02T03:54:54.622Z,12.32
2019-05-02T03:57:32.170Z,12.30
2019-05-02T03:59:55.035Z,12.33
2019-05-02T04:02:24.274Z,12.40
2019-05-02T04:04:59.884Z,12.49
2019-05-02T04:07:24.526Z,12.58
2019-05-02T04:09:54.000Z,12.60
2019-05-02T04:12:22.637Z,12.70
2019-05-02T04:14:55.525Z,12.70
2019-05-02T04:17:28.636Z,12.77
2019-05-02T04:19:54.044Z,12.84
2019-05-02T04:22:23.361Z,12.88
2019-05-02T04:24:56.805Z,12.95
2019-05-02T04:27:27.696Z,13.01
2019-05-02T04:29:53.495Z,13.10
2019-05-02T04:32:23.238Z,13.21
2019-05-02T04:34:55.630Z,13.29
2019-05-02T04:37:24.586Z,13.33
2019-05-02T04:39:57.877Z,13.43
2019-05-02T04:42:24.758Z,13.55
2019-05-02T04:45:16.244Z,13.64
2019-05-02T04:47:24.310Z,13.73
2019-05-02T04:49:54.752Z,13.82
2019-05-02T04:52:24.884Z,13.92
2019-05-02T04:55:08.305Z,13.98
2019-05-02T04:57:36.769Z,14.02
2019-05-02T05:00:06.454Z,14.00
2019-05-02T05:02:35.903Z,13.97
2019-05-02T05:05:00.535Z,13.94
2019-05-02T05:07:39.913Z,13.95
2019-05-02T05:10:03.354Z,14.02
2019-05-02T05:12:37.995Z,14.07
2019-05-02T05:15:04.613Z,14.12
2019-05-02T05:17:34.290Z,14.12
2019-05-02T05:20:13.708Z,14.20
2019-05-02T05:22:44.328Z,14.28
2019-05-02T05:25:17.802Z,14.51
2019-05-02T05:27:45.111Z,14.69
2019-05-02T05:30:15.611Z,14.89
2019-05-02T05:32:47.793Z,14.96
2019-05-02T05:35:18.554Z,15.10
2019-05-02T05:37:52.788Z,15.10
2019-05-02T05:40:22.572Z,15.27
2019-05-02T05:42:52.829Z,15.43
2019-05-02T05:45:21.480Z,15.61
2019-05-02T05:47:52.481Z,15.79
2019-05-02T05:50:24.226Z,16.02
2019-05-02T05:52:59.285Z,16.27
2019-05-02T05:55:28.162Z,16.57
2019-05-02T05:58:01.382Z,16.77
2019-05-02T06:00:28.881Z,17.00
2019-05-02T06:03:10.318Z,17.18
2019-05-02T06:05:40.451Z,17.37
2019-05-02T06:08:03.684Z,17.55
2019-05-02T06:10:39.051Z,17.73
2019-05-02T06:13:11.020Z,17.88
2019-05-02T06:15:39.135Z,17.92
2019-05-02T06:18:09.913Z,18.21
2019-05-02T06:20:39.538Z,18.49
2019-05-02T06:23:08.410Z,18.90
2019-05-02T06:25:38.078Z,19.21
2019-05-02T06:28:08.128Z,19.29
2019-05-02T06:30:36.823Z,19.55
2019-05-02T06:33:05.758Z,19.86
2019-05-02T06:35:36.404Z,20.07
2019-05-02T06:38:05.170Z,20.39
2019-05-02T06:40:34.236Z,20.58
2019-05-02T06:43:04.160Z,20.77
2019-05-02T06:45:37.597Z,20.88
2019-05-02T06:48:04.798Z,20.96
2019-05-02T06:50:38.669Z,21.07
2019-05-02T06:53:09.634Z,21.25
2019-05-02T06:55:38.537Z,21.46
2019-05-02T06:58:08.152Z,21.67
2019-05-02T07:00:56.078Z,21.82
2019-05-02T07:03:11.493Z,22.14
2019-05-02T07:05:40.966Z,22.63
2019-05-02T07:08:12.115Z,23.50
2019-05-02T07:10:44.849Z,24.68
2019-05-02T07:13:14.979Z,25.64
2019-05-02T07:15:48.222Z,27.02
2019-05-02T07:18:27.152Z,28.62
2019-05-02T07:20:56.491Z,30.29
2019-05-02T07:23:25.215Z,32.27
2019-05-02T07:25:53.876Z,32.80
2019-05-02T07:28:24.124Z,34.35
2019-05-02T07:30:54.821Z,34.95
2019-05-02T07:33:23.600Z,36.70
2019-05-02T07:35:55.202Z,37.00
2019-05-02T07:38:25.777Z,38.33
2019-05-02T07:40:54.339Z,38.89
2019-05-02T07:43:23.174Z,38.58
2019-05-02T07:45:53.242Z,39.44
2019-05-02T07:48:22.913Z,40.44
2019-05-02T07:50:52.415Z,40.65
2019-05-02T07:53:21.665Z,41.05
2019-05-02T07:55:51.200Z,41.64
2019-05-02T07:58:20.111Z,41.61
2019-05-02T08:00:48.680Z,42.98
2019-05-02T08:03:18.147Z,44.39
2019-05-02T08:05:47.727Z,43.51
2019-05-02T08:08:18.780Z,45.01
2019-05-02T08:10:47.842Z,43.58
2019-05-02T08:13:17.566Z,44.74
2019-05-02T08:15:50.752Z,46.19
2019-05-02T08:18:17.187Z,46.36
2019-05-02T08:20:46.217Z,46.45
2019-05-02T08:23:15.351Z,47.07
2019-05-02T08:25:45.450Z,47.62
2019-05-02T08:28:18.007Z,46.82
2019-05-02T08:30:48.607Z,46.22
2019-05-02T08:33:18.303Z,45.73
2019-05-02T08:35:47.320Z,45.10
2019-05-02T08:38:17.887Z,45.81
2019-05-02T08:40:49.624Z,45.72
2019-05-02T08:43:18.950Z,46.21
2019-05-02T08:45:47.894Z,47.65
2019-05-02T08:48:17.382Z,47.72
2019-05-02T08:50:48.066Z,45.63
2019-05-02T08:53:19.723Z,43.57
2019-05-02T08:55:47.387Z,43.04
2019-05-02T08:58:16.427Z,42.50
2019-05-02T09:00:47.363Z,41.01
2019-05-02T09:03:17.176Z,40.30
2019-05-02T09:05:47.479Z,41.13
2019-05-02T09:08:17.253Z,41.48
2019-05-02T09:10:47.592Z,41.36
2019-05-02T09:13:25.959Z,42.27
2019-05-02T09:15:51.195Z,45.23
2019-05-02T09:18:22.262Z,44.83
2019-05-02T09:20:56.199Z,45.81
2019-05-02T09:23:22.876Z,45.39
2019-05-02T09:25:52.883Z,41.60
2019-05-02T09:28:25.409Z,39.03
2019-05-02T09:30:57.415Z,36.77
2019-05-02T09:33:23.709Z,34.87
2019-05-02T09:35:52.393Z,33.99
2019-05-02T09:38:22.217Z,33.04
2019-05-02T09:40:54.498Z,31.70
2019-05-02T09:43:22.864Z,30.76
2019-05-02T09:45:52.132Z,30.84
2019-05-02T09:48:22.870Z,31.41
2019-05-02T09:50:52.804Z,31.51
2019-05-02T09:53:25.516Z,30.49
2019-05-02T09:55:57.157Z,29.14
2019-05-02T09:58:23.999Z,28.43
2019-05-02T10:00:57.318Z,28.20
2019-05-02T10:03:26.019Z,27.62
2019-05-02T10:05:54.734Z,27.35
2019-05-02T10:08:23.554Z,27.09
2019-05-02T10:10:52.713Z,26.51
2019-05-02T10:13:22.842Z,26.16
2019-05-02T10:15:52.758Z,26.16
2019-05-02T10:18:28.619Z,26.14
2019-05-02T10:20:52.529Z,28.88
2019-05-02T10:23:23.341Z,28.82
2019-05-02T10:25:52.172Z,28.74
2019-05-02T10:28:22.869Z,28.47
2019-05-02T10:30:56.481Z,27.06
2019-05-02T10:33:27.927Z,25.71
2019-05-02T10:35:55.429Z,26.35
2019-05-02T10:38:24.076Z,25.28
2019-05-02T10:40:54.775Z,24.53
2019-05-02T10:43:23.125Z,23.94
2019-05-02T10:45:56.418Z,23.43
2019-05-02T10:48:28.182Z,23.20
2019-05-02T10:50:55.809Z,25.51
2019-05-02T10:53:24.492Z,27.99
2019-05-02T10:55:53.145Z,27.24
2019-05-02T10:58:26.177Z,26.19
2019-05-02T11:00:52.446Z,26.01
2019-05-02T11:03:22.881Z,25.20
2019-05-02T11:06:05.520Z,23.86
2019-05-02T11:08:36.905Z,23.71
2019-05-02T11:11:05.971Z,23.53
2019-05-02T11:13:43.978Z,22.17
2019-05-02T11:16:17.085Z,21.44
2019-05-02T11:18:56.599Z,20.73
2019-05-02T11:21:25.366Z,20.44
2019-05-02T11:23:54.061Z,19.86
2019-05-02T11:26:25.054Z,19.94
2019-05-02T11:28:53.236Z,19.63
2019-05-02T11:31:22.002Z,19.68
2019-05-02T11:33:52.715Z,19.79
2019-05-02T11:36:22.317Z,20.42
2019-05-02T11:39:00.433Z,20.87
2019-05-02T11:41:22.463Z,21.00
2019-05-02T11:43:54.062Z,20.99
2019-05-02T11:46:22.092Z,20.99
2019-05-02T11:48:56.283Z,20.96
2019-05-02T11:51:22.727Z,21.31
2019-05-02T11:53:52.741Z,21.69
2019-05-02T11:56:22.205Z,22.18
2019-05-02T11:58:52.854Z,22.81
2019-05-02T12:01:35.004Z,23.30
2019-05-02T12:03:56.926Z,23.44
2019-05-02T12:06:25.569Z,23.44
2019-05-02T12:08:54.213Z,23.31
2019-05-02T12:11:23.174Z,23.38
2019-05-02T12:13:56.806Z,23.31
2019-05-02T12:16:23.013Z,23.50
2019-05-02T12:18:53.765Z,23.44
2019-05-02T12:21:22.934Z,23.34
2019-05-02T12:23:52.759Z,23.46
2019-05-02T12:26:22.184Z,23.51
2019-05-02T12:28:52.630Z,23.46
2019-05-02T12:31:26.759Z,23.52
2019-05-02T12:33:56.354Z,23.50
2019-05-02T12:36:25.024Z,23.39
2019-05-02T12:38:53.764Z,23.18
2019-05-02T12:41:25.099Z,23.07
2019-05-02T12:43:52.769Z,22.69
2019-05-02T12:46:22.194Z,22.31
2019-05-02T12:48:51.912Z,22.21
2019-05-02T12:51:22.590Z,22.25
2019-05-02T12:53:52.786Z,22.36
2019-05-02T12:56:22.862Z,22.30
2019-05-02T12:58:52.916Z,22.32
2019-05-02T13:01:22.145Z,22.37
2019-05-02T13:04:04.763Z,22.21
2019-05-02T13:06:33.377Z,22.12
2019-05-02T13:09:03.109Z,22.07
2019-05-02T13:11:42.234Z,22.01
2019-05-02T13:14:16.959Z,21.86
2019-05-02T13:16:38.117Z,21.78
2019-05-02T13:19:06.947Z,21.67
2019-05-02T13:21:43.097Z,21.57
2019-05-02T13:24:16.198Z,21.49
2019-05-02T13:26:42.991Z,21.44
2019-05-02T13:29:11.851Z,21.41
2019-05-02T13:31:45.012Z,21.37
2019-05-02T13:34:22.074Z,21.28
2019-05-02T13:36:52.146Z,21.11
2019-05-02T13:39:22.730Z,21.00
2019-05-02T13:41:52.202Z,20.91
2019-05-02T13:44:23.121Z,20.73
2019-05-02T13:46:53.567Z,20.63
2019-05-02T13:49:22.503Z,20.60
2019-05-02T13:51:52.101Z,20.61
2019-05-02T13:54:22.088Z,20.58
2019-05-02T13:56:52.697Z,20.59
2019-05-02T13:59:22.335Z,20.51
2019-05-02T14:01:52.707Z,20.43
2019-05-02T14:04:23.300Z,20.46
2019-05-02T14:06:52.976Z,20.42
2019-05-02T14:09:32.490Z,20.37
2019-05-02T14:12:08.628Z,20.33
2019-05-02T14:14:37.335Z,20.29
2019-05-02T14:17:06.179Z,20.21
2019-05-02T14:19:34.828Z,20.13
2019-05-02T14:22:04.433Z,20.15
2019-05-02T14:24:33.093Z,20.14
2019-05-02T14:27:02.694Z,20.07
2019-05-02T14:29:32.978Z,20.04
2019-05-02T14:32:02.731Z,20.08
2019-05-02T14:34:42.623Z,20.07
2019-05-02T14:37:11.879Z,20.07
2019-05-02T14:39:41.666Z,20.10
2019-05-02T14:42:15.289Z,20.07
2019-05-02T14:45:04.136Z,20.00
2019-05-02T14:47:18.182Z,19.96
2019-05-02T14:49:42.946Z,19.98
2019-05-02T14:52:12.632Z,19.97
2019-05-02T14:54:43.871Z,19.98
2019-05-02T14:57:17.095Z,20.00
2019-05-02T14:59:43.724Z,20.02
2019-05-02T15:02:14.117Z,20.01
2019-05-02T15:04:44.358Z,20.00
2019-05-02T15:07:13.166Z,19.99
2019-05-02T15:09:41.899Z,20.06
2019-05-02T15:12:15.854Z,20.01
2019-05-02T15:14:43.133Z,19.95
2019-05-02T15:17:12.121Z,19.90
2019-05-02T15:19:42.724Z,19.97
2019-05-02T15:22:12.415Z,20.00
2019-05-02T15:24:42.395Z,20.04
2019-05-02T15:27:17.030Z,20.10
2019-05-02T15:29:42.087Z,20.07
2019-05-02T15:32:18.428Z,19.88
2019-05-02T15:35:05.116Z,19.80
2019-05-02T15:37:35.865Z,19.78
2019-05-02T15:42:37.326Z,19.58
2019-05-02T15:45:07.219Z,19.48
2019-05-02T15:47:37.179Z,19.41
2019-05-02T15:50:07.206Z,19.35
2019-05-02T15:52:37.473Z,19.29
2019-05-02T15:55:07.468Z,19.25
2019-05-02T15:57:43.083Z,19.22
2019-05-02T16:00:09.995Z,19.18
2019-05-02T16:02:38.645Z,19.17
2019-05-02T16:05:08.695Z,19.19
2019-05-02T16:07:38.005Z,19.24
2019-05-02T16:10:10.614Z,19.32
2019-05-02T16:12:41.800Z,19.40
2019-05-02T16:15:18.106Z,19.44
2019-05-02T16:17:42.310Z,19.51
2019-05-02T16:20:13.650Z,19.54
2019-05-02T16:22:46.223Z,19.47
2019-05-02T16:25:13.024Z,19.47
2019-05-02T16:27:45.721Z,19.46
2019-05-02T16:30:17.494Z,19.35
2019-05-02T16:32:52.256Z,19.21
2019-05-02T16:35:22.674Z,19.06
2019-05-02T16:37:55.687Z,18.93
2019-05-02T16:40:29.601Z,18.69
2019-05-02T16:42:52.584Z,18.58
2019-05-02T16:45:22.250Z,18.42
2019-05-02T16:47:58.545Z,18.28
2019-05-02T16:50:22.889Z,18.16
2019-05-02T16:52:53.137Z,18.00
2019-05-02T16:55:26.361Z,17.90
2019-05-02T16:57:56.575Z,17.90
2019-05-02T17:00:24.809Z,17.81
2019-05-02T17:02:53.422Z,17.78
2019-05-02T17:05:22.221Z,17.67
2019-05-02T17:08:02.242Z,17.68
2019-05-02T17:10:35.031Z,17.57
2019-05-02T17:13:03.069Z,17.40
2019-05-02T17:15:36.466Z,17.37
2019-05-02T17:18:12.600Z,17.24
2019-05-02T17:20:36.833Z,17.19
2019-05-02T17:23:07.488Z,17.10
2019-05-02T17:25:35.841Z,17.00
2019-05-02T17:28:08.459Z,16.94
2019-05-02T17:30:39.161Z,16.86
2019-05-02T17:33:07.070Z,16.83
2019-05-02T17:35:36.135Z,16.79
2019-05-02T17:38:05.412Z,16.69
2019-05-02T17:40:34.468Z,16.68
2019-05-02T17:43:06.896Z,16.64
2019-05-02T17:45:38.602Z,16.53
2019-05-02T17:48:09.896Z,16.50
2019-05-02T17:50:38.963Z,16.38
2019-05-02T17:53:08.824Z,16.28
2019-05-02T17:55:40.365Z,16.23
2019-05-02T17:58:16.383Z,16.24
2019-05-02T18:00:47.375Z,16.29
2019-05-02T18:03:17.881Z,16.20
2019-05-02T18:05:46.606Z,16.20
2019-05-02T18:08:17.753Z,16.20
2019-05-02T18:10:50.597Z,16.23
2019-05-02T18:13:17.390Z,16.25
2019-05-02T18:15:49.189Z,16.25
2019-05-02T18:18:18.632Z,16.19
2019-05-02T18:20:47.643Z,16.24
2019-05-02T18:23:18.683Z,16.15
2019-05-02T18:25:47.743Z,16.16
2019-05-02T18:28:22.323Z,16.03
2019-05-02T18:30:46.927Z,15.98
2019-05-02T18:33:17.200Z,15.92
2019-05-02T18:35:47.017Z,15.87
2019-05-02T18:38:20.937Z,15.87
2019-05-02T18:40:46.549Z,15.80
2019-05-02T18:43:15.305Z,15.76
2019-05-02T18:45:44.455Z,15.69
2019-05-02T18:48:13.417Z,15.66
2019-05-02T18:50:47.614Z,15.58
2019-05-02T18:53:18.479Z,15.56
2019-05-02T18:55:46.035Z,15.46
2019-05-02T18:58:14.984Z,15.45
2019-05-02T19:00:45.212Z,15.38
2019-05-02T19:03:17.177Z,15.31
2019-05-02T19:05:46.678Z,15.25
2019-05-02T19:08:28.199Z,15.23
2019-05-02T19:11:02.478Z,15.14
2019-05-02T19:13:17.230Z,15.06
2019-05-02T19:15:49.145Z,15.00
2019-05-02T19:18:19.589Z,14.94
2019-05-02T19:20:57.493Z,14.96
2019-05-02T19:23:27.247Z,14.82
2019-05-02T19:25:55.990Z,14.79
2019-05-02T19:28:42.880Z,14.62
2019-05-02T19:31:11.690Z,14.57
2019-05-02T19:33:42.708Z,14.51
2019-05-02T19:36:10.812Z,14.45
2019-05-02T19:38:39.440Z,14.38
2019-05-02T19:41:09.339Z,14.32
2019-05-02T19:43:40.500Z,14.24
2019-05-02T19:46:11.994Z,14.17
2019-05-02T19:48:42.905Z,14.15
2019-05-02T19:51:18.727Z,14.11
2019-05-02T19:53:42.619Z,14.02
2019-05-02T19:56:12.827Z,13.97
2019-05-02T19:58:46.654Z,13.91
2019-05-02T20:01:17.488Z,13.85
2019-05-02T20:03:45.412Z,13.82
2019-05-02T20:06:15.853Z,13.78
2019-05-02T20:08:44.535Z,13.70
2019-05-02T20:11:14.183Z,13.64
2019-05-02T20:13:43.227Z,13.64
2019-05-02T20:16:23.478Z,13.54
2019-05-02T20:18:52.647Z,13.50
2019-05-02T20:21:27.972Z,13.38
2019-05-02T20:23:57.644Z,13.36
2019-05-02T20:26:26.297Z,13.31
2019-05-02T20:28:57.984Z,13.32
2019-05-02T20:31:26.784Z,13.22
2019-05-02T20:33:55.845Z,13.12
2019-05-02T20:36:24.831Z,13.07
2019-05-02T20:38:54.326Z,13.00
2019-05-02T20:41:23.378Z,12.98
2019-05-02T20:43:52.032Z,12.95
2019-05-02T20:46:21.839Z,12.92
2019-05-02T20:48:52.591Z,12.89
2019-05-02T20:51:22.786Z,12.89
2019-05-02T20:53:52.600Z,12.83
2019-05-02T20:56:23.039Z,12.78
2019-05-02T20:58:52.646Z,12.80
2019-05-02T21:01:23.378Z,12.70
2019-05-02T21:03:52.356Z,12.66
2019-05-02T21:06:37.025Z,12.69
2019-05-02T21:09:02.384Z,12.60
2019-05-02T21:11:32.428Z,12.55
2019-05-02T21:14:01.790Z,12.62
2019-05-02T21:16:34.831Z,12.49
2019-05-02T21:19:03.630Z,12.45
2019-05-02T21:21:33.906Z,12.48
2019-05-02T21:24:03.900Z,12.42
2019-05-02T21:26:33.403Z,12.38
2019-05-02T21:29:03.041Z,12.37
2019-05-02T21:31:32.036Z,12.34
2019-05-02T21:34:02.548Z,12.30
2019-05-02T21:36:32.001Z,12.34
2019-05-02T21:39:02.790Z,12.28
2019-05-02T21:41:33.022Z,12.17
2019-05-02T21:44:02.553Z,12.16
2019-05-02T21:46:32.029Z,12.17
2019-05-02T21:49:01.117Z,12.09
2019-05-02T21:51:35.402Z,12.13
2019-05-02T21:54:12.208Z,11.97
2019-05-02T21:56:49.138Z,11.96
2019-05-02T21:59:19.623Z,11.97
2019-05-02T22:01:53.630Z,11.75
2019-05-02T22:04:22.946Z,11.71
2019-05-02T22:06:52.704Z,11.65
2019-05-02T22:09:23.051Z,11.61
2019-05-02T22:11:52.677Z,11.60
2019-05-02T22:14:22.540Z,11.58
2019-05-02T22:16:53.161Z,11.58
2019-05-02T22:19:23.284Z,11.56
2019-05-02T22:21:52.599Z,11.54
2019-05-02T22:24:21.529Z,11.47
2019-05-02T22:26:50.226Z,11.43
2019-05-02T22:29:18.863Z,11.42
2019-05-02T22:31:47.935Z,11.47
2019-05-02T22:34:17.545Z,11.46
2019-05-02T22:36:47.101Z,11.39
2019-05-02T22:39:19.000Z,11.39
2019-05-02T22:41:48.666Z,11.41
2019-05-02T22:44:18.291Z,11.37
2019-05-02T22:46:47.283Z,11.39
2019-05-02T22:49:16.951Z,11.40
2019-05-02T22:51:46.555Z,11.31
2019-05-02T22:54:26.963Z,11.32
2019-05-02T22:56:46.761Z,11.30
2019-05-02T22:59:15.399Z,11.25
2019-05-02T23:01:44.371Z,11.22
2019-05-02T23:04:13.007Z,11.19
2019-05-02T23:06:44.254Z,11.17
2019-05-02T23:09:13.512Z,11.16
2019-05-02T23:11:42.749Z,11.11
2019-05-02T23:14:11.992Z,11.10
2019-05-02T23:16:42.709Z,11.07
2019-05-02T23:19:12.349Z,11.09
2019-05-02T23:21:42.371Z,11.03
2019-05-02T23:24:14.667Z,11.02
2019-05-02T23:26:51.811Z,10.97
2019-05-02T23:29:22.462Z,10.90
2019-05-02T23:31:51.873Z,10.86
2019-05-02T23:34:23.348Z,10.81
2019-05-02T23:36:52.224Z,10.80
2019-05-02T23:39:21.485Z,10.78
2019-05-02T23:41:52.491Z,10.75
2019-05-02T23:44:22.853Z,10.71
2019-05-02T23:46:52.532Z,10.67
2019-05-02T23:49:22.177Z,10.66
2019-05-02T23:51:51.560Z,10.66
2019-05-02T23:54:22.069Z,10.65
2019-05-02T23:56:51.745Z,10.64
2019-05-02T23:59:22.234Z,10.71
